CheckWX is a tool to help pilots better visualize weather data.  It is not intended as a substitute for an official pre-flight weather briefing.

08:15:42 UTC

KDNS METAR
Denison Municipal Airport
Denison, Iowa, USA
Current

21 mins ago

KDNS 220755Z AUTO 08005KT 10SM FEW090 OVC110 M07/M09 A3032 RMK AO2
Observed
Feb-22 @ 07:55 UTC
Wind
  • 080° at 5 KTS
Visibility
10 SM
Flight Rules
VFR
Cloud Levels
  • Few at 9,000' AGL
  • Overcast at 11,000' AGL
Temperature
-7°C / 19°F
Dewpoint
-9°C / 16°F
Humidity
86%
Altimeter
30.32" Hg
Pressure
1026.72 hPa
Previous

41 mins ago

KDNS 220735Z AUTO 08005KT 10SM OVC110 M07/M09 A3032 RMK AO2
Observed
Feb-22 @ 07:35 UTC
Wind
  • 080° at 5 KTS
Visibility
10 SM
Flight Rules
VFR
Cloud Levels
  • Overcast at 11,000' AGL
Temperature
-7°C / 19°F
Dewpoint
-9°C / 16°F
Humidity
86%
Altimeter
30.32" Hg
Pressure
1026.72 hPa
Previous

1 hour ago

KDNS 220715Z AUTO 10003KT 10SM OVC110 M07/M09 A3032 RMK AO2
Observed
Feb-22 @ 07:15 UTC
Wind
  • 100° at 3 KTS
Visibility
10 SM
Flight Rules
VFR
Cloud Levels
  • Overcast at 11,000' AGL
Temperature
-7°C / 19°F
Dewpoint
-9°C / 16°F
Humidity
86%
Altimeter
30.32" Hg
Pressure
1026.72 hPa